Time;durP1;ratioP1;P1;durP2;ratioP2;P2;SDS_P1;SDS_P2;PMS_P1;PMS_P2;Temp;Humidity;BMP_temperature;BMP_pressure;BME280_temperature;BME280_humidity;BME280_pressure;Samples;Min_cycle;Max_cycle;Signal;HPM_P1;HPM_P2
2023/06/17 00:00:23;;;;;;;8.60;8.10;;;;;;;;;;5015470;28;20049;-81
2023/06/17 00:02:49;;;;;;;7.57;7.07;;;;;;;;;;5033764;28;20493;-83
2023/06/17 00:05:16;;;;;;;8.95;8.25;;;;;;;;;;5036899;28;20049;-81
2023/06/17 00:07:42;;;;;;;8.35;7.70;;;;;;;;;;5018998;28;20060;-82
2023/06/17 00:10:08;;;;;;;8.65;7.95;;;;;;;;;;5036745;28;20084;-82
2023/06/17 00:12:36;;;;;;;8.50;7.90;;;;;;;;;;5036725;28;20060;-82
2023/06/17 00:15:04;;;;;;;8.50;7.90;;;;;;;;;;5035547;28;20049;-82
2023/06/17 00:17:31;;;;;;;9.90;8.98;;;;;;;;;;5019242;28;20041;-82
2023/06/17 00:19:58;;;;;;;8.60;8.10;;;;;;;;;;5036552;28;20049;-81
2023/06/17 00:22:25;;;;;;;9.48;8.88;;;;;;;;;;5036805;28;20049;-81
2023/06/17 00:24:54;;;;;;;10.13;9.20;;;;;;;;;;5036506;28;20135;-82
2023/06/17 00:27:20;;;;;;;8.85;8.02;;;;;;;;;;5036173;28;20050;-81
2023/06/17 00:29:46;;;;;;;9.75;8.98;;;;;;;;;;5036457;28;20054;-81
2023/06/17 00:32:12;;;;;;;9.20;8.35;;;;;;;;;;5036394;28;20081;-81
2023/06/17 00:34:38;;;;;;;10.43;9.73;;;;;;;;;;5035977;28;20509;-81
2023/06/17 00:37:04;;;;;;;10.18;9.38;;;;;;;;;;5018248;28;20049;-81
2023/06/17 00:39:31;;;;;;;10.82;9.93;;;;;;;;;;5036392;28;20512;-82
2023/06/17 00:41:58;;;;;;;9.60;8.95;;;;;;;;;;5036500;28;20389;-81
2023/06/17 00:44:24;;;;;;;9.82;8.90;;;;;;;;;;5035652;28;20506;-81
2023/06/17 00:46:51;;;;;;;10.02;9.27;;;;;;;;;;5036159;28;20041;-81
2023/06/17 00:49:17;;;;;;;10.13;9.38;;;;;;;;;;5036061;28;20057;-82
2023/06/17 00:51:44;;;;;;;9.27;8.68;;;;;;;;;;5036053;28;20049;-81
2023/06/17 00:54:12;;;;;;;10.88;9.98;;;;;;;;;;5035936;28;20115;-82
2023/06/17 00:56:40;;;;;;;11.73;10.65;;;;;;;;;;5034698;28;20042;-81
2023/06/17 00:59:06;;;;;;;11.32;10.35;;;;;;;;;;5034728;28;20128;-82
2023/06/17 01:01:35;;;;;;;11.10;10.38;;;;;;;;;;5035869;28;20041;-82
2023/06/17 01:04:02;;;;;;;10.75;9.77;;;;;;;;;;5034582;28;20045;-81
2023/06/17 01:06:33;;;;;;;10.63;9.90;;;;;;;;;;5035262;28;20045;-82
2023/06/17 01:09:09;;;;;;;11.95;11.13;;;;;;;;;;5035730;28;20053;-81
2023/06/17 01:11:37;;;;;;;11.73;10.93;;;;;;;;;;5035467;28;20119;-81
2023/06/17 01:14:05;;;;;;;11.32;10.25;;;;;;;;;;5034764;28;20050;-82
2023/06/17 01:16:32;;;;;;;10.88;10.07;;;;;;;;;;5035627;28;20049;-82
2023/06/17 01:18:59;;;;;;;11.25;10.45;;;;;;;;;;5035574;28;20124;-81
2023/06/17 01:21:28;;;;;;;9.65;9.05;;;;;;;;;;5035315;28;20049;-81
2023/06/17 01:23:59;;;;;;;11.15;10.05;;;;;;;;;;5034244;28;20057;-81
2023/06/17 01:26:28;;;;;;;12.38;11.48;;;;;;;;;;5035238;28;20122;-82
2023/06/17 01:28:59;;;;;;;12.73;11.48;;;;;;;;;;5034916;28;20489;-83
2023/06/17 01:31:26;;;;;;;12.80;11.65;;;;;;;;;;5035396;28;20053;-81
2023/06/17 01:33:55;;;;;;;13.10;12.00;;;;;;;;;;5035300;28;20049;-81
2023/06/17 01:36:29;;;;;;;12.57;11.45;;;;;;;;;;5034799;28;20053;-81
2023/06/17 01:39:03;;;;;;;12.48;11.48;;;;;;;;;;5035147;28;20443;-82
2023/06/17 01:41:36;;;;;;;14.43;13.15;;;;;;;;;;5033695;28;20041;-80
2023/06/17 01:44:03;;;;;;;11.10;10.07;;;;;;;;;;5035061;28;20045;-81
2023/06/17 01:46:30;;;;;;;12.02;11.05;;;;;;;;;;5034861;28;20454;-81
2023/06/17 01:48:56;;;;;;;12.07;11.00;;;;;;;;;;5035327;28;20053;-81
2023/06/17 01:51:22;;;;;;;15.15;13.93;;;;;;;;;;5034873;28;20080;-81
2023/06/17 01:53:48;;;;;;;12.95;11.93;;;;;;;;;;5033810;28;20553;-81
2023/06/17 01:56:15;;;;;;;12.93;11.93;;;;;;;;;;5034680;28;20041;-81
2023/06/17 01:58:41;;;;;;;12.98;11.98;;;;;;;;;;5035299;28;20045;-81
2023/06/17 02:01:07;;;;;;;14.60;13.35;;;;;;;;;;5034710;28;20187;-81
2023/06/17 02:03:33;;;;;;;14.63;13.60;;;;;;;;;;5034739;28;20065;-81
2023/06/17 02:05:59;;;;;;;13.10;12.30;;;;;;;;;;5034290;28;20107;-82
2023/06/17 02:08:26;;;;;;;13.95;12.65;;;;;;;;;;5034493;28;20378;-81
2023/06/17 02:10:52;;;;;;;13.77;12.77;;;;;;;;;;5017141;28;20057;-81
2023/06/17 02:13:18;;;;;;;14.63;13.35;;;;;;;;;;5034480;28;20110;-81
2023/06/17 02:15:44;;;;;;;13.70;12.50;;;;;;;;;;5033388;28;20049;-81
2023/06/17 02:18:12;;;;;;;13.55;12.38;;;;;;;;;;5034457;28;20046;-81
2023/06/17 02:20:38;;;;;;;13.82;12.73;;;;;;;;;;5033175;28;20056;-81
2023/06/17 02:23:05;;;;;;;15.25;14.00;;;;;;;;;;5034666;28;20131;-81
2023/06/17 02:25:31;;;;;;;15.32;14.10;;;;;;;;;;5033890;28;20050;-81
2023/06/17 02:27:57;;;;;;;17.35;16.05;;;;;;;;;;5034794;28;20144;-80
2023/06/17 02:30:23;;;;;;;14.48;13.38;;;;;;;;;;5034230;28;20049;-81
2023/06/17 02:32:50;;;;;;;14.48;13.38;;;;;;;;;;5017473;28;20123;-80
2023/06/17 02:35:16;;;;;;;14.35;13.02;;;;;;;;;;5033891;28;20091;-81
2023/06/17 02:37:42;;;;;;;15.65;14.20;;;;;;;;;;5032563;28;20041;-81
2023/06/17 02:40:08;;;;;;;18.50;16.75;;;;;;;;;;5032840;28;20053;-81
2023/06/17 02:42:35;;;;;;;15.27;14.15;;;;;;;;;;5034008;28;20398;-81
2023/06/17 02:45:01;;;;;;;16.42;15.15;;;;;;;;;;5034462;28;20444;-81
2023/06/17 02:47:27;;;;;;;16.40;14.95;;;;;;;;;;5033655;28;20056;-81
2023/06/17 02:49:53;;;;;;;19.80;17.45;;;;;;;;;;5033844;28;20102;-81
2023/06/17 02:52:21;;;;;;;18.90;16.38;;;;;;;;;;5032534;28;20049;-81
2023/06/17 02:54:47;;;;;;;19.73;17.52;;;;;;;;;;5033305;28;20409;-81
2023/06/17 02:57:13;;;;;;;18.92;16.92;;;;;;;;;;5033256;28;20481;-81
2023/06/17 02:59:39;;;;;;;21.75;19.23;;;;;;;;;;5033608;28;20458;-81
2023/06/17 03:02:05;;;;;;;27.63;20.30;;;;;;;;;;5034281;28;20060;-80
2023/06/17 03:04:34;;;;;;;30.85;23.23;;;;;;;;;;5033369;28;20132;-80
2023/06/17 03:07:04;;;;;;;39.40;25.25;;;;;;;;;;5033017;28;20501;-80
2023/06/17 03:09:30;;;;;;;29.30;20.63;;;;;;;;;;5033621;28;20053;-81
2023/06/17 03:11:58;;;;;;;23.88;20.67;;;;;;;;;;5032383;28;20056;-81
2023/06/17 03:14:24;;;;;;;26.92;21.88;;;;;;;;;;5032493;28;20053;-81
2023/06/17 03:16:50;;;;;;;42.00;27.48;;;;;;;;;;5032214;28;20099;-81
2023/06/17 03:19:17;;;;;;;26.85;22.77;;;;;;;;;;5033586;28;20064;-80
2023/06/17 03:21:45;;;;;;;33.00;26.05;;;;;;;;;;5032665;28;20057;-81
2023/06/17 03:24:11;;;;;;;34.85;25.98;;;;;;;;;;5033448;28;20053;-81
2023/06/17 03:26:37;;;;;;;39.15;25.40;;;;;;;;;;5033308;28;20061;-81
2023/06/17 03:29:04;;;;;;;27.80;24.00;;;;;;;;;;5033162;28;20092;-81
2023/06/17 03:31:30;;;;;;;28.70;24.15;;;;;;;;;;5032514;28;20073;-81
2023/06/17 03:33:56;;;;;;;30.13;24.60;;;;;;;;;;5033423;28;20048;-82
2023/06/17 03:36:28;;;;;;;26.33;22.80;;;;;;;;;;5032908;28;20041;-81
2023/06/17 03:38:55;;;;;;;27.02;22.10;;;;;;;;;;5036269;28;20050;-81
2023/06/17 03:41:21;;;;;;;30.55;22.67;;;;;;;;;;5037300;28;20045;-81
2023/06/17 03:43:47;;;;;;;39.10;23.33;;;;;;;;;;5037248;28;20049;-80
2023/06/17 03:46:13;;;;;;;32.10;21.48;;;;;;;;;;5019802;28;20049;-80
2023/06/17 03:48:39;;;;;;;39.35;23.85;;;;;;;;;;5037322;28;20052;-80
2023/06/17 03:51:06;;;;;;;41.28;24.00;;;;;;;;;;5037222;28;20057;-80
2023/06/17 03:53:32;;;;;;;21.33;19.55;;;;;;;;;;5037040;28;20072;-81
2023/06/17 03:55:58;;;;;;;33.90;21.50;;;;;;;;;;5035958;28;20103;-80
2023/06/17 03:58:24;;;;;;;26.67;19.75;;;;;;;;;;5037020;28;20045;-80
2023/06/17 04:00:51;;;;;;;21.63;19.67;;;;;;;;;;5036852;28;20045;-80
2023/06/17 04:03:19;;;;;;;22.45;20.27;;;;;;;;;;5036150;28;20049;-80
2023/06/17 04:05:45;;;;;;;24.35;19.95;;;;;;;;;;5035706;28;20053;-81
2023/06/17 04:08:11;;;;;;;31.17;19.95;;;;;;;;;;5037167;28;20103;-80
2023/06/17 04:10:38;;;;;;;39.92;22.52;;;;;;;;;;5035761;28;20053;-80
2023/06/17 04:13:04;;;;;;;21.50;19.48;;;;;;;;;;5036800;28;20045;-81
2023/06/17 04:15:30;;;;;;;26.30;20.65;;;;;;;;;;5036681;28;20144;-81
2023/06/17 04:17:56;;;;;;;25.75;21.48;;;;;;;;;;5035151;28;20052;-82
2023/06/17 04:20:25;;;;;;;23.23;20.45;;;;;;;;;;5035295;28;20056;-80
2023/06/17 04:22:51;;;;;;;38.35;23.60;;;;;;;;;;5036655;28;20524;-81
2023/06/17 04:25:20;;;;;;;44.70;24.90;;;;;;;;;;5036639;28;20191;-80
2023/06/17 04:27:53;;;;;;;45.00;29.13;;;;;;;;;;5036442;28;20494;-80
2023/06/17 04:30:19;;;;;;;23.88;21.40;;;;;;;;;;5036357;28;20408;-81
2023/06/17 04:32:46;;;;;;;32.80;24.48;;;;;;;;;;5036433;28;20057;-80
2023/06/17 04:35:12;;;;;;;23.98;21.55;;;;;;;;;;5036242;28;20095;-80
2023/06/17 04:37:40;;;;;;;25.20;22.55;;;;;;;;;;5036015;28;20045;-80
2023/06/17 04:40:09;;;;;;;23.85;21.75;;;;;;;;;;5034960;28;20076;-80
2023/06/17 04:42:36;;;;;;;25.30;22.80;;;;;;;;;;5035261;28;20060;-80
2023/06/17 04:45:02;;;;;;;27.10;23.95;;;;;;;;;;5034812;28;20049;-81
2023/06/17 04:47:28;;;;;;;28.35;25.45;;;;;;;;;;5036139;28;20045;-81
2023/06/17 04:49:55;;;;;;;26.08;23.55;;;;;;;;;;5035322;28;20049;-81
2023/06/17 04:52:24;;;;;;;24.13;21.92;;;;;;;;;;5035057;28;20107;-81
2023/06/17 04:54:50;;;;;;;24.83;22.58;;;;;;;;;;5035846;28;20111;-81
2023/06/17 04:57:17;;;;;;;23.00;20.73;;;;;;;;;;5035546;28;20443;-82
2023/06/17 04:59:43;;;;;;;23.95;21.60;;;;;;;;;;5036239;28;20076;-81
2023/06/17 05:02:10;;;;;;;22.65;20.65;;;;;;;;;;5018518;28;20061;-81
2023/06/17 05:04:36;;;;;;;22.80;20.58;;;;;;;;;;5035784;28;20049;-80
2023/06/17 05:07:02;;;;;;;20.85;18.85;;;;;;;;;;5035215;28;20107;-81
2023/06/17 05:09:28;;;;;;;20.23;18.42;;;;;;;;;;5035684;28;20041;-81
2023/06/17 05:11:54;;;;;;;23.67;19.67;;;;;;;;;;5034725;28;20132;-81
2023/06/17 05:14:20;;;;;;;21.42;19.30;;;;;;;;;;5035633;28;20057;-81
2023/06/17 05:16:46;;;;;;;20.63;18.83;;;;;;;;;;5034490;28;20049;-81
2023/06/17 05:19:12;;;;;;;19.45;17.83;;;;;;;;;;5035456;28;20045;-81
2023/06/17 05:21:38;;;;;;;20.52;18.75;;;;;;;;;;5034545;28;20049;-81
2023/06/17 05:24:05;;;;;;;21.55;19.75;;;;;;;;;;5035455;28;20060;-81
2023/06/17 05:26:31;;;;;;;21.73;19.92;;;;;;;;;;5035695;28;20160;-81
2023/06/17 05:28:57;;;;;;;20.58;18.85;;;;;;;;;;5035548;28;20068;-81
2023/06/17 05:31:23;;;;;;;20.80;18.92;;;;;;;;;;5034337;28;20061;-81
2023/06/17 05:33:49;;;;;;;23.00;20.88;;;;;;;;;;5035267;28;20076;-82
2023/06/17 05:36:15;;;;;;;23.17;21.15;;;;;;;;;;5034887;28;20045;-80
2023/06/17 05:38:41;;;;;;;21.98;20.05;;;;;;;;;;5034254;28;20107;-79
2023/06/17 05:41:07;;;;;;;21.45;19.55;;;;;;;;;;5019820;28;20061;-82
2023/06/17 05:43:33;;;;;;;21.08;19.17;;;;;;;;;;5015067;28;20050;-81
2023/06/17 05:45:59;;;;;;;20.77;19.08;;;;;;;;;;5015231;28;20124;-81
2023/06/17 05:48:26;;;;;;;19.38;17.77;;;;;;;;;;5015597;28;20046;-81
2023/06/17 05:50:52;;;;;;;19.73;18.08;;;;;;;;;;5015790;28;20042;-81
2023/06/17 05:53:18;;;;;;;21.17;19.23;;;;;;;;;;5015117;28;20050;-81
2023/06/17 05:55:44;;;;;;;19.02;17.33;;;;;;;;;;5014955;28;20038;-81
2023/06/17 05:58:10;;;;;;;18.45;16.85;;;;;;;;;;5014979;28;20056;-81
2023/06/17 06:00:36;;;;;;;19.77;18.17;;;;;;;;;;5013445;28;20089;-81
2023/06/17 06:03:02;;;;;;;22.98;21.00;;;;;;;;;;5013906;28;20042;-81
2023/06/17 06:05:28;;;;;;;19.55;17.85;;;;;;;;;;5014824;28;20081;-81
2023/06/17 06:07:55;;;;;;;20.75;18.95;;;;;;;;;;4997150;28;20057;-81
2023/06/17 06:10:21;;;;;;;22.30;20.45;;;;;;;;;;5014590;28;20138;-81
2023/06/17 06:12:49;;;;;;;23.58;21.52;;;;;;;;;;5013727;28;20490;-80
2023/06/17 06:15:15;;;;;;;23.08;20.98;;;;;;;;;;5014596;28;20046;-80
2023/06/17 06:17:41;;;;;;;21.58;19.77;;;;;;;;;;5013615;28;20398;-81
2023/06/17 06:20:07;;;;;;;21.75;19.88;;;;;;;;;;5014288;28;20045;-80
2023/06/17 06:22:33;;;;;;;23.15;20.90;;;;;;;;;;5014421;28;20042;-77
2023/06/17 06:24:59;;;;;;;20.88;18.98;;;;;;;;;;5014341;28;20054;-77
2023/06/17 06:27:25;;;;;;;20.58;18.67;;;;;;;;;;4996757;28;20086;-76
2023/06/17 06:29:52;;;;;;;23.83;21.65;;;;;;;;;;5014228;28;20061;-76
2023/06/17 06:32:18;;;;;;;22.10;20.17;;;;;;;;;;5013920;28;20441;-76
2023/06/17 06:34:45;;;;;;;22.70;20.67;;;;;;;;;;5014249;28;20042;-76
2023/06/17 06:37:11;;;;;;;24.10;21.95;;;;;;;;;;5013779;28;20049;-76
2023/06/17 06:39:37;;;;;;;25.48;23.20;;;;;;;;;;5014198;28;20053;-76
2023/06/17 06:42:03;;;;;;;20.70;18.90;;;;;;;;;;5014491;28;20394;-77
2023/06/17 06:44:30;;;;;;;21.02;19.02;;;;;;;;;;5013059;28;20501;-77
2023/06/17 06:46:56;;;;;;;22.40;20.48;;;;;;;;;;5014077;28;20460;-77
2023/06/17 06:49:22;;;;;;;21.63;19.73;;;;;;;;;;5014044;28;20057;-77
2023/06/17 06:51:48;;;;;;;21.83;19.90;;;;;;;;;;5014164;28;20049;-77
2023/06/17 06:54:14;;;;;;;21.13;19.23;;;;;;;;;;5012615;28;20048;-78
2023/06/17 06:56:40;;;;;;;17.75;16.20;;;;;;;;;;5013793;28;20482;-77
2023/06/17 06:59:06;;;;;;;21.13;19.38;;;;;;;;;;5012786;28;20089;-77
2023/06/17 07:01:33;;;;;;;20.58;18.80;;;;;;;;;;5013686;28;20046;-77
2023/06/17 07:03:59;;;;;;;20.63;18.92;;;;;;;;;;5013489;28;20552;-77
2023/06/17 07:06:25;;;;;;;19.27;17.60;;;;;;;;;;5013444;28;20391;-77
2023/06/17 07:08:51;;;;;;;17.58;16.13;;;;;;;;;;5013814;28;20092;-77
2023/06/17 07:11:17;;;;;;;18.58;17.08;;;;;;;;;;5013645;28;20406;-78
2023/06/17 07:13:43;;;;;;;20.27;18.65;;;;;;;;;;5012811;28;20050;-77
2023/06/17 07:16:09;;;;;;;16.55;15.18;;;;;;;;;;5014022;28;20045;-77
2023/06/17 07:18:35;;;;;;;16.77;15.38;;;;;;;;;;5012271;28;20570;-78
2023/06/17 07:21:01;;;;;;;17.88;16.25;;;;;;;;;;5012641;28;20057;-82
2023/06/17 07:23:27;;;;;;;16.95;15.45;;;;;;;;;;5013667;28;20053;-80
2023/06/17 07:25:53;;;;;;;20.80;19.08;;;;;;;;;;5013581;28;20042;-81
2023/06/17 07:28:20;;;;;;;20.10;18.20;;;;;;;;;;4996020;28;20054;-81
2023/06/17 07:30:47;;;;;;;21.10;19.25;;;;;;;;;;5013709;28;20147;-83
2023/06/17 07:33:13;;;;;;;18.90;17.42;;;;;;;;;;5012586;28;20062;-81
2023/06/17 07:35:39;;;;;;;19.52;17.75;;;;;;;;;;5013457;28;20176;-82
2023/06/17 07:38:05;;;;;;;18.23;16.65;;;;;;;;;;5013275;28;20042;-82
2023/06/17 07:40:32;;;;;;;19.33;17.67;;;;;;;;;;5013271;28;20487;-82
2023/06/17 07:42:58;;;;;;;18.27;16.55;;;;;;;;;;5013426;28;20046;-82
2023/06/17 07:45:24;;;;;;;17.70;16.17;;;;;;;;;;5013413;28;20049;-82
2023/06/17 07:47:50;;;;;;;19.38;17.70;;;;;;;;;;4996568;28;20053;-82
2023/06/17 07:50:16;;;;;;;18.58;16.98;;;;;;;;;;5013870;28;20100;-81
2023/06/17 07:52:42;;;;;;;20.10;18.38;;;;;;;;;;5013459;28;20490;-82
2023/06/17 07:55:08;;;;;;;20.60;18.63;;;;;;;;;;5013420;28;20056;-82
2023/06/17 07:57:35;;;;;;;20.45;18.42;;;;;;;;;;5013526;28;20081;-81
2023/06/17 08:00:01;;;;;;;18.58;17.13;;;;;;;;;;5012504;28;20053;-81
2023/06/17 08:02:27;;;;;;;18.92;17.23;;;;;;;;;;5013358;28;20406;-81
2023/06/17 08:04:54;;;;;;;18.77;17.23;;;;;;;;;;5012225;28;20052;-82
2023/06/17 08:07:21;;;;;;;19.02;17.33;;;;;;;;;;5013140;28;20052;-82
2023/06/17 08:09:47;;;;;;;19.52;17.80;;;;;;;;;;5012107;28;20056;-82
2023/06/17 08:12:13;;;;;;;16.83;15.48;;;;;;;;;;5013029;28;20175;-82
2023/06/17 08:14:39;;;;;;;20.15;18.35;;;;;;;;;;5013260;28;20050;-82
2023/06/17 08:17:05;;;;;;;19.33;17.65;;;;;;;;;;5011669;28;20049;-82
2023/06/17 08:19:31;;;;;;;18.05;16.42;;;;;;;;;;5013227;28;20049;-82
2023/06/17 08:21:58;;;;;;;17.05;15.73;;;;;;;;;;5013113;28;20072;-82
2023/06/17 08:24:24;;;;;;;17.13;15.57;;;;;;;;;;5014729;28;20053;-82
2023/06/17 08:26:51;;;;;;;18.02;16.52;;;;;;;;;;5015887;28;20045;-83
2023/06/17 08:29:18;;;;;;;19.50;17.85;;;;;;;;;;5015146;28;20077;-81
2023/06/17 08:31:45;;;;;;;18.17;16.58;;;;;;;;;;5015482;28;20045;-81
2023/06/17 08:34:11;;;;;;;17.60;16.30;;;;;;;;;;5016287;28;20430;-82
2023/06/17 08:36:40;;;;;;;17.30;15.90;;;;;;;;;;5015215;28;20042;-82
2023/06/17 08:39:07;;;;;;;18.27;16.70;;;;;;;;;;5015355;28;20076;-82
2023/06/17 08:41:38;;;;;;;17.08;15.45;;;;;;;;;;5015406;28;20133;-83
2023/06/17 08:44:06;;;;;;;18.05;16.58;;;;;;;;;;4983353;28;20053;-82
2023/06/17 08:46:32;;;;;;;15.68;14.57;;;;;;;;;;5016334;28;20081;-83
2023/06/17 08:48:58;;;;;;;15.90;14.40;;;;;;;;;;5016345;28;20045;-82
2023/06/17 08:51:24;;;;;;;15.38;14.18;;;;;;;;;;5015268;28;20060;-82
2023/06/17 08:53:52;;;;;;;15.40;14.00;;;;;;;;;;5016521;28;20049;-82
2023/06/17 08:56:18;;;;;;;15.05;13.85;;;;;;;;;;4998584;28;20045;-82
2023/06/17 08:58:45;;;;;;;15.68;14.32;;;;;;;;;;5016121;28;20064;-83
2023/06/17 09:01:12;;;;;;;17.95;16.40;;;;;;;;;;5016726;28;20100;-82
2023/06/17 09:03:39;;;;;;;16.20;14.68;;;;;;;;;;5015925;28;20128;-82
2023/06/17 09:06:21;;;;;;;14.75;13.65;;;;;;;;;;5014628;28;20045;-82
2023/06/17 09:08:47;;;;;;;15.63;14.32;;;;;;;;;;5014602;28;20096;-82
2023/06/17 09:11:14;;;;;;;18.02;16.58;;;;;;;;;;5015926;28;20046;-82
2023/06/17 09:13:40;;;;;;;14.75;13.45;;;;;;;;;;5015481;28;20498;-83
2023/06/17 09:16:07;;;;;;;16.67;15.05;;;;;;;;;;5014533;28;20084;-82
2023/06/17 09:18:33;;;;;;;14.63;13.40;;;;;;;;;;5015681;28;20085;-82
2023/06/17 09:20:59;;;;;;;15.30;14.00;;;;;;;;;;5015652;28;20136;-83
2023/06/17 09:23:25;;;;;;;16.65;15.18;;;;;;;;;;5014923;28;20045;-82
2023/06/17 09:26:05;;;;;;;16.02;14.63;;;;;;;;;;5014614;28;20116;-82
2023/06/17 09:28:31;;;;;;;16.17;14.77;;;;;;;;;;5013732;28;20498;-83
2023/06/17 09:30:59;;;;;;;13.27;12.30;;;;;;;;;;5015360;28;20056;-82
2023/06/17 09:33:26;;;;;;;15.77;14.48;;;;;;;;;;5014235;28;20096;-82
2023/06/17 09:36:04;;;;;;;14.35;13.25;;;;;;;;;;5012949;28;20073;-82
2023/06/17 09:38:33;;;;;;;16.02;14.85;;;;;;;;;;5014467;28;20045;-82
2023/06/17 09:40:59;;;;;;;15.30;14.00;;;;;;;;;;5015326;28;20046;-83
2023/06/17 09:43:26;;;;;;;14.70;13.45;;;;;;;;;;5014475;28;20100;-82
2023/06/17 09:45:55;;;;;;;14.80;13.60;;;;;;;;;;5014221;28;20042;-82
2023/06/17 09:48:24;;;;;;;14.18;13.05;;;;;;;;;;5015044;28;20042;-82
2023/06/17 09:50:57;;;;;;;13.35;12.18;;;;;;;;;;5013608;28;20041;-81
2023/06/17 09:53:26;;;;;;;14.55;13.35;;;;;;;;;;5014291;28;20053;-82
2023/06/17 09:55:56;;;;;;;13.93;12.73;;;;;;;;;;5014896;28;20042;-82
2023/06/17 09:58:23;;;;;;;14.13;13.13;;;;;;;;;;5014284;28;20050;-82
2023/06/17 10:00:51;;;;;;;13.32;12.13;;;;;;;;;;5014836;28;20060;-82
2023/06/17 10:03:18;;;;;;;13.60;12.63;;;;;;;;;;5013812;28;20050;-82
2023/06/17 10:05:45;;;;;;;12.80;11.90;;;;;;;;;;5013931;28;20100;-82
2023/06/17 10:08:11;;;;;;;12.75;11.75;;;;;;;;;;5014147;28;20509;-82
2023/06/17 10:10:38;;;;;;;13.98;12.93;;;;;;;;;;5013761;28;20107;-82
2023/06/17 10:13:06;;;;;;;13.45;12.38;;;;;;;;;;5014594;28;20049;-82
2023/06/17 10:15:32;;;;;;;13.77;12.82;;;;;;;;;;5013538;28;20050;-83
2023/06/17 10:17:59;;;;;;;12.30;10.95;;;;;;;;;;4997625;28;20092;-82
2023/06/17 10:20:31;;;;;;;13.88;12.65;;;;;;;;;;5014778;28;20062;-81
2023/06/17 10:22:57;;;;;;;13.60;12.45;;;;;;;;;;4997437;28;20049;-82
2023/06/17 10:25:24;;;;;;;12.85;11.55;;;;;;;;;;5013681;28;20125;-82
2023/06/17 10:27:52;;;;;;;12.13;11.10;;;;;;;;;;4996977;28;20062;-82
2023/06/17 10:30:28;;;;;;;12.25;11.10;;;;;;;;;;5013251;28;20050;-83
2023/06/17 10:33:01;;;;;;;12.65;11.75;;;;;;;;;;5013400;28;20053;-83
2023/06/17 10:35:41;;;;;;;10.43;9.50;;;;;;;;;;5026404;28;20050;-83
2023/06/17 10:38:10;;;;;;;11.32;10.32;;;;;;;;;;5032593;28;20513;-83
2023/06/17 10:40:50;;;;;;;10.60;9.90;;;;;;;;;;5016666;28;20049;-82
2023/06/17 10:43:17;;;;;;;11.82;10.85;;;;;;;;;;5033708;28;20394;-82
2023/06/17 10:45:54;;;;;;;11.57;10.68;;;;;;;;;;5033866;28;20053;-83
2023/06/17 10:48:21;;;;;;;15.10;9.25;;;;;;;;;;5032806;28;20481;-82
2023/06/17 10:50:51;;;;;;;10.70;9.70;;;;;;;;;;5033147;28;20136;-83
2023/06/17 10:53:17;;;;;;;10.02;9.05;;;;;;;;;;5032736;28;20061;-82
2023/06/17 10:55:45;;;;;;;7.97;7.32;;;;;;;;;;5016222;28;20053;-83
2023/06/17 10:58:11;;;;;;;8.10;7.50;;;;;;;;;;5032630;28;20536;-82
2023/06/17 11:00:37;;;;;;;9.23;8.43;;;;;;;;;;5016289;28;20053;-84
2023/06/17 11:03:03;;;;;;;8.45;7.82;;;;;;;;;;5032587;28;20049;-83
2023/06/17 11:05:35;;;;;;;8.70;8.00;;;;;;;;;;5033331;28;20489;-84
2023/06/17 11:08:02;;;;;;;9.20;8.55;;;;;;;;;;5033272;28;20136;-84
2023/06/17 11:10:28;;;;;;;8.40;7.88;;;;;;;;;;5032293;28;20045;-84
2023/06/17 11:12:54;;;;;;;8.27;7.55;;;;;;;;;;5032820;28;20053;-83
2023/06/17 11:15:22;;;;;;;7.63;7.13;;;;;;;;;;5032643;28;20057;-83
2023/06/17 11:17:48;;;;;;;6.97;6.55;;;;;;;;;;5033789;28;20071;-83
2023/06/17 11:20:14;;;;;;;6.80;6.30;;;;;;;;;;5033540;28;20049;-83
2023/06/17 11:22:40;;;;;;;6.75;5.95;;;;;;;;;;5033546;28;20052;-83
2023/06/17 11:25:07;;;;;;;6.70;6.03;;;;;;;;;;5032486;28;20045;-83
2023/06/17 11:27:33;;;;;;;7.63;6.88;;;;;;;;;;5032089;28;20069;-84
2023/06/17 11:30:00;;;;;;;6.80;6.15;;;;;;;;;;5033369;28;20057;-83
2023/06/17 11:32:27;;;;;;;7.43;6.93;;;;;;;;;;5032214;28;20457;-84
2023/06/17 11:34:53;;;;;;;6.15;5.65;;;;;;;;;;5032292;28;20045;-83
2023/06/17 11:37:19;;;;;;;6.28;5.72;;;;;;;;;;5031579;28;20141;-85
2023/06/17 11:39:45;;;;;;;7.30;6.70;;;;;;;;;;5032265;28;20044;-84
2023/06/17 11:42:11;;;;;;;6.03;5.63;;;;;;;;;;5032087;28;20482;-84
2023/06/17 11:44:38;;;;;;;8.80;5.30;;;;;;;;;;5033289;28;20091;-83
2023/06/17 11:47:05;;;;;;;5.28;4.70;;;;;;;;;;5032309;28;20092;-83
2023/06/17 11:49:31;;;;;;;5.85;5.43;;;;;;;;;;5032244;28;20050;-83
2023/06/17 11:52:08;;;;;;;7.35;5.55;;;;;;;;;;4999790;28;20046;-84
2023/06/17 11:54:35;;;;;;;5.78;5.25;;;;;;;;;;5032460;28;20124;-83
2023/06/17 11:57:02;;;;;;;5.40;4.90;;;;;;;;;;5031961;28;20124;-84
2023/06/17 11:59:29;;;;;;;7.50;5.10;;;;;;;;;;5034314;28;20049;-84
2023/06/17 12:01:56;;;;;;;6.45;4.85;;;;;;;;;;5035927;28;20056;-83
2023/06/17 12:04:23;;;;;;;5.30;4.13;;;;;;;;;;5036034;28;20054;-83
2023/06/17 12:06:49;;;;;;;8.18;3.80;;;;;;;;;;5036264;28;20520;-84
2023/06/17 12:09:15;;;;;;;3.70;3.38;;;;;;;;;;5035718;28;20041;-83
2023/06/17 12:11:43;;;;;;;6.35;4.07;;;;;;;;;;5019603;28;20046;-83
2023/06/17 12:14:13;;;;;;;5.20;3.47;;;;;;;;;;5035768;28;20057;-84
2023/06/17 12:16:41;;;;;;;4.05;3.63;;;;;;;;;;5035524;28;20049;-84
2023/06/17 12:19:13;;;;;;;4.55;4.25;;;;;;;;;;5035542;28;20053;-83
2023/06/17 12:21:39;;;;;;;5.57;4.32;;;;;;;;;;5019368;28;20140;-83
2023/06/17 12:24:06;;;;;;;4.00;3.65;;;;;;;;;;5035566;28;20049;-84
2023/06/17 12:26:32;;;;;;;4.50;4.20;;;;;;;;;;5035652;28;20060;-84
2023/06/17 12:28:58;;;;;;;4.35;4.05;;;;;;;;;;5035258;28;20512;-84
2023/06/17 12:31:25;;;;;;;6.35;4.18;;;;;;;;;;5034940;28;20104;-83
2023/06/17 12:33:51;;;;;;;3.88;3.58;;;;;;;;;;5035842;28;20104;-85
2023/06/17 12:36:17;;;;;;;4.20;3.15;;;;;;;;;;5001635;28;20053;-86
2023/06/17 12:38:44;;;;;;;2.55;2.38;;;;;;;;;;5036057;28;20038;-84
2023/06/17 12:41:11;;;;;;;3.97;3.17;;;;;;;;;;5019041;28;20045;-84
2023/06/17 12:43:38;;;;;;;3.67;3.28;;;;;;;;;;5035217;28;20060;-84
2023/06/17 12:46:05;;;;;;;3.45;3.17;;;;;;;;;;5018285;28;20041;-84
2023/06/17 12:48:33;;;;;;;4.38;3.65;;;;;;;;;;5034858;28;20060;-84
2023/06/17 12:50:59;;;;;;;3.75;3.25;;;;;;;;;;5035056;28;20124;-84
2023/06/17 12:53:28;;;;;;;4.43;4.05;;;;;;;;;;5018478;28;20490;-84
2023/06/17 12:55:55;;;;;;;3.47;3.17;;;;;;;;;;5034884;28;20041;-84
2023/06/17 12:58:21;;;;;;;5.95;3.42;;;;;;;;;;5034846;28;20053;-85
2023/06/17 13:00:47;;;;;;;3.45;3.22;;;;;;;;;;5018722;28;20136;-85
2023/06/17 13:03:14;;;;;;;3.55;3.22;;;;;;;;;;5035073;28;20128;-85
2023/06/17 13:05:40;;;;;;;3.33;2.88;;;;;;;;;;5034780;28;20049;-85
2023/06/17 13:08:06;;;;;;;3.00;2.80;;;;;;;;;;5034382;28;20084;-85
2023/06/17 13:10:33;;;;;;;3.05;2.58;;;;;;;;;;5018277;28;20052;-85
2023/06/17 13:12:59;;;;;;;2.88;2.55;;;;;;;;;;5035409;28;20061;-85
2023/06/17 13:15:25;;;;;;;2.92;2.83;;;;;;;;;;5035708;28;20437;-85
2023/06/17 13:17:51;;;;;;;3.38;3.05;;;;;;;;;;5019292;28;20085;-85
2023/06/17 13:20:17;;;;;;;6.10;3.13;;;;;;;;;;5034722;28;20076;-85
2023/06/17 13:22:43;;;;;;;2.88;2.67;;;;;;;;;;5034638;28;20045;-85
2023/06/17 13:25:09;;;;;;;3.40;3.03;;;;;;;;;;5035556;28;20057;-85
2023/06/17 13:27:35;;;;;;;3.92;3.20;;;;;;;;;;5035765;28;20068;-85
2023/06/17 13:30:02;;;;;;;6.10;3.58;;;;;;;;;;5034625;28;20045;-85
2023/06/17 13:32:28;;;;;;;3.20;3.00;;;;;;;;;;5034583;28;20041;-85
2023/06/17 13:34:54;;;;;;;3.05;2.60;;;;;;;;;;5034435;28;20049;-85
2023/06/17 13:37:20;;;;;;;2.97;2.70;;;;;;;;;;5017108;28;20119;-85
2023/06/17 13:39:46;;;;;;;3.70;3.22;;;;;;;;;;5017391;28;20049;-85
2023/06/17 13:42:12;;;;;;;3.28;2.90;;;;;;;;;;5035532;28;20433;-85
2023/06/17 13:44:40;;;;;;;3.38;3.17;;;;;;;;;;5046888;28;20041;-85
2023/06/17 13:47:07;;;;;;;2.85;2.65;;;;;;;;;;5039862;28;20049;-85
2023/06/17 13:49:33;;;;;;;3.63;2.50;;;;;;;;;;5035494;28;20045;-85
2023/06/17 13:52:00;;;;;;;3.72;3.20;;;;;;;;;;5017840;28;20046;-85
2023/06/17 13:54:27;;;;;;;2.78;2.63;;;;;;;;;;5033860;28;20547;-86
2023/06/17 13:56:53;;;;;;;3.20;2.70;;;;;;;;;;5034679;28;20064;-87
2023/06/17 13:59:20;;;;;;;3.25;2.95;;;;;;;;;;5033869;28;20095;-86
2023/06/17 14:01:46;;;;;;;3.75;3.55;;;;;;;;;;5034344;28;20053;-85
2023/06/17 14:04:12;;;;;;;3.53;3.22;;;;;;;;;;5033659;28;20041;-85
2023/06/17 14:06:39;;;;;;;3.38;3.05;;;;;;;;;;5034363;28;20042;-84
2023/06/17 14:09:05;;;;;;;2.75;2.47;;;;;;;;;;5033879;28;20045;-85
2023/06/17 14:11:32;;;;;;;3.15;2.58;;;;;;;;;;5017111;28;20080;-86
2023/06/17 14:13:58;;;;;;;2.95;2.72;;;;;;;;;;5017388;28;20041;-85
2023/06/17 14:16:24;;;;;;;2.80;2.60;;;;;;;;;;5033749;28;20093;-85
2023/06/17 14:18:51;;;;;;;3.00;2.90;;;;;;;;;;5034468;28;20080;-86
2023/06/17 14:21:27;;;;;;;4.13;3.10;;;;;;;;;;5032866;28;20049;-86
2023/06/17 14:23:54;;;;;;;3.35;3.05;;;;;;;;;;5017117;28;20053;-87